Witte Raaf — PG5626 — position and weather

sailwx.info

Track history (hours):
 
Tides and Currents Weather Stations Pressure Air Temp Water Temp Dewpoint Dewpoint Depression Visibility Wind Speed Wind Dir Waves Ship Positions

Witte Raaf

Last reported at 2014-Aug-20 23:28 UTC. Time now 2014-Sep-01 13:37 UTC.
Position N 32°44' W 117°18'.
Warning: this ship's position is 11 days out of date.

Length 14 m.

Type: Pleasure craft. MMSI: 244383027.

Date/timePositionNaut miles runAvg speedWind from/ knotsBaromVisibWave heightAir tempDewpointWater temp
2014-Aug-20 23:28N 32°44' W 117°18'6 6.5
2014-Aug-20 22:33N 32°50' W 117°20'7 6.9
2014-Aug-20 21:33N 32°56' W 117°22'6 6.4
2014-Aug-20 20:34N 33°03' W 117°23'6 6.0
2014-Aug-20 19:33N 33°09' W 117°25'4 0.2
2014-Aug-20 01:19N 33°12' W 117°24'3 3.6
2014-Aug-20 00:33N 33°14' W 117°27'3 3.1
2014-Aug-19 23:29N 33°16' W 117°30'4 3.7
2014-Aug-19 22:21N 33°18' W 117°34'21 0.4
2014-Aug-17 18:33N 33°34' W 117°51'  
Track history (hours):
 
Tides and Currents Weather Stations Pressure Air Temp Water Temp Dewpoint Dewpoint Depression Visibility Wind Speed Wind Dir Waves Ship Positions

Witte Raaf

Last reported at 2014-Aug-20 23:28 UTC. Time now 2014-Sep-01 13:37 UTC.
Position N 32°44' W 117°18'.
Warning: this ship's position is 11 days out of date.

Length 14 m.

Type: Pleasure craft. MMSI: 244383027.

Date/timePositionNaut miles runAvg speedWind from/ knotsBaromVisibWave heightAir tempDewpointWater temp
2014-Aug-20 23:28N 32°44' W 117°18'6 6.5
2014-Aug-20 22:33N 32°50' W 117°20'7 6.9
2014-Aug-20 21:33N 32°56' W 117°22'6 6.4
2014-Aug-20 20:34N 33°03' W 117°23'6 6.0
2014-Aug-20 19:33N 33°09' W 117°25'4 0.2
2014-Aug-20 01:19N 33°12' W 117°24'3 3.6
2014-Aug-20 00:33N 33°14' W 117°27'3 3.1
2014-Aug-19 23:29N 33°16' W 117°30'4 3.7
2014-Aug-19 22:21N 33°18' W 117°34'21 0.4
2014-Aug-17 18:33N 33°34' W 117°51'  

Dump ship's entire track history